createdAt,value
2019-01-11T00:02:02.540Z,35.23
2019-01-11T00:05:06.160Z,36.50
2019-01-11T00:08:09.631Z,34.80
2019-01-11T00:11:13.064Z,39.40
2019-01-11T00:14:16.505Z,35.77
2019-01-11T00:17:19.970Z,37.00
2019-01-11T00:20:23.404Z,39.93
2019-01-11T00:23:26.842Z,36.40
2019-01-11T00:26:30.272Z,41.57
2019-01-11T00:29:33.723Z,41.07
2019-01-11T00:32:37.189Z,39.20
2019-01-11T00:35:40.595Z,38.23
2019-01-11T00:38:44.033Z,35.50
2019-01-11T00:41:47.472Z,35.00
2019-01-11T00:44:50.896Z,32.50
2019-01-11T00:47:54.396Z,36.50
2019-01-11T00:50:57.808Z,38.77
2019-01-11T00:54:01.264Z,31.73
2019-01-11T00:57:04.844Z,37.17
2019-01-11T01:00:17.745Z,37.97
2019-01-11T01:03:21.178Z,37.43
2019-01-11T01:06:24.604Z,39.60
2019-01-11T01:09:28.024Z,40.50
2019-01-11T01:12:31.534Z,36.33
2019-01-11T01:15:34.968Z,31.57
2019-01-11T01:18:38.455Z,36.03
2019-01-11T01:21:41.884Z,32.10
2019-01-11T01:24:45.337Z,34.10
2019-01-11T01:27:48.777Z,32.23
2019-01-11T01:30:52.196Z,33.17
2019-01-11T01:33:55.617Z,28.80
2019-01-11T01:36:59.081Z,32.90
2019-01-11T01:40:02.624Z,32.23
2019-01-11T01:43:06.033Z,30.10
2019-01-11T01:46:09.496Z,27.47
2019-01-11T01:49:12.932Z,32.73
2019-01-11T01:52:16.365Z,29.07
2019-01-11T01:55:19.799Z,24.80
2019-01-11T01:58:23.269Z,24.60
2019-01-11T02:01:26.708Z,27.27
2019-01-11T02:04:30.136Z,25.60
2019-01-11T02:07:33.568Z,23.80
2019-01-11T02:10:36.980Z,26.20
2019-01-11T02:13:40.425Z,23.90
2019-01-11T02:16:43.837Z,23.30
2019-01-11T02:19:47.271Z,26.67
2019-01-11T02:22:50.726Z,23.23
2019-01-11T02:25:54.176Z,22.70
2019-01-11T02:28:57.572Z,22.70
2019-01-11T02:32:01.014Z,21.00
2019-01-11T02:35:05.081Z,24.20
2019-01-11T02:38:08.497Z,22.77
2019-01-11T02:41:11.948Z,20.00
2019-01-11T02:44:15.357Z,21.33
2019-01-11T02:47:18.797Z,23.13
2019-01-11T02:50:22.222Z,20.33
2019-01-11T02:53:25.657Z,19.13
2019-01-11T02:56:29.102Z,20.90
2019-01-11T02:59:32.605Z,21.03
2019-01-11T03:02:36.025Z,19.83
2019-01-11T03:05:39.466Z,21.33
2019-01-11T03:08:42.886Z,20.13
2019-01-11T03:11:46.318Z,23.03
2019-01-11T03:14:49.749Z,21.60
2019-01-11T03:17:53.160Z,22.53
2019-01-11T03:20:56.677Z,23.93
2019-01-11T03:24:00.097Z,20.17
2019-01-11T03:27:03.530Z,23.50
2019-01-11T03:30:12.754Z,21.30
2019-01-11T03:33:16.186Z,22.17
2019-01-11T03:36:19.623Z,22.47
2019-01-11T03:39:23.104Z,25.83
2019-01-11T03:42:26.609Z,26.17
2019-01-11T03:45:30.157Z,24.93
2019-01-11T03:48:33.641Z,23.77
2019-01-11T03:51:37.072Z,22.40
2019-01-11T03:54:40.497Z,23.03
2019-01-11T03:57:44.093Z,24.13
2019-01-11T04:00:47.515Z,23.17
2019-01-11T04:03:50.951Z,25.60
2019-01-11T04:06:54.361Z,26.20
2019-01-11T04:09:57.888Z,27.70
2019-01-11T04:13:01.300Z,25.30
2019-01-11T04:16:04.740Z,23.20
2019-01-11T04:19:08.628Z,24.00
2019-01-11T04:22:13.703Z,26.07
2019-01-11T04:25:18.771Z,28.13
2019-01-11T04:28:22.199Z,27.47
2019-01-11T04:31:25.621Z,21.73
2019-01-11T04:34:30.471Z,24.00
2019-01-11T04:37:33.982Z,25.67
2019-01-11T04:40:37.416Z,23.47
2019-01-11T04:43:40.853Z,23.90
2019-01-11T04:46:44.288Z,23.37
2019-01-11T04:49:47.705Z,22.27
2019-01-11T04:52:51.157Z,22.60
2019-01-11T04:55:54.601Z,23.63
2019-01-11T04:58:58.010Z,24.37
2019-01-11T05:02:01.525Z,23.20
2019-01-11T05:05:06.176Z,23.77
2019-01-11T05:08:09.738Z,22.57
2019-01-11T05:11:14.688Z,21.50
2019-01-11T05:14:18.192Z,23.20
2019-01-11T05:17:21.605Z,25.87
2019-01-11T05:20:25.036Z,25.33
2019-01-11T05:23:28.459Z,24.47
2019-01-11T05:26:31.918Z,23.00
2019-01-11T05:29:35.333Z,22.90
2019-01-11T05:32:38.771Z,23.20
2019-01-11T05:35:42.187Z,21.27
2019-01-11T05:38:45.632Z,18.93
2019-01-11T05:41:49.057Z,21.03
2019-01-11T05:44:52.496Z,21.47
2019-01-11T05:47:55.909Z,22.60
2019-01-11T05:50:59.362Z,20.10
2019-01-11T05:54:02.794Z,20.07
2019-01-11T05:57:06.215Z,20.07
2019-01-11T06:00:11.003Z,21.50
2019-01-11T06:03:14.417Z,21.07
2019-01-11T06:06:17.858Z,18.10
2019-01-11T06:09:21.283Z,17.50
2019-01-11T06:12:24.729Z,19.77
2019-01-11T06:15:28.144Z,18.23
2019-01-11T06:18:31.852Z,17.50
2019-01-11T06:21:35.268Z,20.43
2019-01-11T06:24:38.700Z,18.50
2019-01-11T06:27:42.111Z,21.37
2019-01-11T06:30:45.539Z,22.97
2019-01-11T06:33:48.967Z,23.50
2019-01-11T06:36:52.404Z,21.97
2019-01-11T06:39:55.849Z,24.13
2019-01-11T06:43:03.474Z,23.77
2019-01-11T06:46:04.518Z,23.60
2019-01-11T06:49:07.953Z,26.00
2019-01-11T06:52:11.368Z,24.57
2019-01-11T06:55:14.803Z,25.63
2019-01-11T06:58:18.232Z,27.73
2019-01-11T07:01:21.674Z,27.03
2019-01-11T07:04:25.080Z,24.50
2019-01-11T07:07:28.525Z,22.97
2019-01-11T07:10:31.944Z,23.77
2019-01-11T07:13:35.402Z,24.90
2019-01-11T07:16:38.816Z,22.70
2019-01-11T07:19:42.263Z,24.17
2019-01-11T07:22:45.712Z,23.67
2019-01-11T07:25:49.121Z,21.90
2019-01-11T07:28:52.564Z,25.63
2019-01-11T07:31:57.620Z,21.20
2019-01-11T07:35:01.324Z,21.00
2019-01-11T07:38:04.748Z,24.30
2019-01-11T07:41:08.344Z,26.03
2019-01-11T07:44:11.806Z,25.50
2019-01-11T07:47:15.268Z,24.67
2019-01-11T07:50:18.704Z,24.53
2019-01-11T07:53:22.201Z,25.83
2019-01-11T07:56:25.645Z,29.83
2019-01-11T07:59:29.239Z,29.33
2019-01-11T08:02:32.756Z,28.43
2019-01-11T08:05:36.169Z,27.83
2019-01-11T08:08:39.613Z,33.17
2019-01-11T08:11:43.042Z,29.30
2019-01-11T08:14:46.486Z,35.67
2019-01-11T08:17:49.894Z,27.93
2019-01-11T08:20:56.379Z,30.27
2019-01-11T08:23:58.508Z,34.07
2019-01-11T08:27:01.943Z,31.90
2019-01-11T08:30:08.455Z,36.23
2019-01-11T08:33:18.342Z,34.67
2019-01-11T08:36:17.029Z,31.03
2019-01-11T08:39:20.444Z,34.47
2019-01-11T08:42:23.898Z,33.10
2019-01-11T08:45:27.309Z,49.97
2019-01-11T08:48:30.757Z,59.20
2019-01-11T08:51:34.172Z,74.93
2019-01-11T08:54:37.620Z,48.50
2019-01-11T08:57:41.437Z,52.00
2019-01-11T09:00:45.123Z,65.63
2019-01-11T09:03:48.556Z,48.57
2019-01-11T09:06:52.010Z,39.10
2019-01-11T09:09:55.462Z,36.73
2019-01-11T09:12:58.869Z,31.10
2019-01-11T09:16:02.458Z,33.80
2019-01-11T09:19:05.921Z,37.90
2019-01-11T09:22:09.663Z,33.90
2019-01-11T09:25:13.359Z,29.63
2019-01-11T09:28:18.944Z,31.37
2019-01-11T09:31:22.640Z,31.70
2019-01-11T09:34:26.327Z,36.57
2019-01-11T09:37:29.971Z,36.43
2019-01-11T09:40:33.460Z,39.40
2019-01-11T09:43:36.876Z,58.70
2019-01-11T09:46:40.325Z,37.90
2019-01-11T09:49:43.735Z,32.13
2019-01-11T09:52:47.177Z,29.60
2019-01-11T09:55:50.584Z,73.67
2019-01-11T09:58:54.028Z,43.63
2019-01-11T10:02:15.344Z,52.43
2019-01-11T10:05:18.769Z,42.27
2019-01-11T10:08:22.216Z,35.93
2019-01-11T10:11:25.624Z,32.60
2019-01-11T10:14:29.076Z,34.70
2019-01-11T10:17:32.488Z,30.17
2019-01-11T10:20:35.929Z,32.93
2019-01-11T10:23:39.467Z,33.70
2019-01-11T10:26:42.884Z,33.33
2019-01-11T10:29:46.332Z,34.30
2019-01-11T10:32:50.000Z,29.10
2019-01-11T10:35:53.448Z,31.63
2019-01-11T10:38:56.889Z,32.50
2019-01-11T10:42:00.356Z,45.77
2019-01-11T10:45:05.202Z,89.73
2019-01-11T10:48:08.737Z,54.87
2019-01-11T10:51:12.148Z,53.43
2019-01-11T10:54:19.937Z,40.77
2019-01-11T10:57:23.353Z,88.87
2019-01-11T11:00:26.876Z,54.17
2019-01-11T11:03:30.291Z,106.60
2019-01-11T11:06:33.745Z,85.07
2019-01-11T11:09:37.197Z,87.00
2019-01-11T11:12:40.628Z,110.53
2019-01-11T11:15:45.717Z,138.07
2019-01-11T11:18:49.140Z,214.00
2019-01-11T11:21:52.591Z,136.17
2019-01-11T11:24:56.316Z,170.60
2019-01-11T11:27:59.738Z,157.00
2019-01-11T11:31:03.435Z,160.70
2019-01-11T11:34:06.853Z,153.23
2019-01-11T11:37:11.944Z,260.17
2019-01-11T11:40:15.541Z,98.63
2019-01-11T11:43:18.973Z,141.03
2019-01-11T11:46:22.424Z,162.33
2019-01-11T11:49:25.862Z,325.77
2019-01-11T11:52:29.308Z,58.40
2019-01-11T11:55:32.745Z,137.50
2019-01-11T11:58:36.245Z,90.00
2019-01-11T12:01:39.643Z,93.00
2019-01-11T12:04:43.083Z,38.70
2019-01-11T12:07:46.519Z,124.07
2019-01-11T12:10:49.976Z,180.73
2019-01-11T12:13:53.390Z,35.63
2019-01-11T12:16:56.838Z,169.87
2019-01-11T12:20:00.261Z,180.97
2019-01-11T12:23:04.091Z,81.77
2019-01-11T12:26:08.013Z,82.13
2019-01-11T12:29:12.772Z,82.63
2019-01-11T12:32:19.639Z,55.13
2019-01-11T12:35:21.566Z,159.10
2019-01-11T12:38:25.009Z,66.20
2019-01-11T12:41:28.457Z,66.43
2019-01-11T12:44:31.877Z,27.73
2019-01-11T12:47:35.337Z,27.40
2019-01-11T12:50:38.752Z,226.70
2019-01-11T12:53:42.212Z,57.57
2019-01-11T12:56:45.629Z,58.17
2019-01-11T12:59:49.072Z,145.33
2019-01-11T13:02:52.498Z,67.73
2019-01-11T13:05:55.959Z,128.40
2019-01-11T13:08:59.376Z,32.00
2019-01-11T13:12:02.833Z,97.50
2019-01-11T13:15:09.452Z,24.73
2019-01-11T13:18:12.906Z,90.57
2019-01-11T13:21:16.337Z,88.93
2019-01-11T13:24:19.784Z,22.57
2019-01-11T13:27:23.200Z,50.93
2019-01-11T13:30:26.637Z,189.50
2019-01-11T13:33:30.084Z,127.30
2019-01-11T13:36:33.520Z,82.77
2019-01-11T13:39:37.979Z,42.93
2019-01-11T13:42:41.498Z,68.40
2019-01-11T13:45:44.942Z,49.50
2019-01-11T13:48:48.365Z,187.83
2019-01-11T13:51:51.810Z,72.37
2019-01-11T13:54:55.240Z,120.93
2019-01-11T13:57:58.684Z,43.87
2019-01-11T14:01:02.099Z,45.50
2019-01-11T14:04:05.621Z,69.20
2019-01-11T14:07:09.037Z,89.17
2019-01-11T14:10:12.506Z,49.90
2019-01-11T14:13:15.929Z,98.93
2019-01-11T14:16:19.434Z,67.10
2019-01-11T14:19:22.853Z,27.77
2019-01-11T14:22:26.309Z,31.40
2019-01-11T14:25:29.731Z,46.63
2019-01-11T14:28:34.000Z,34.67
2019-01-11T14:31:37.414Z,30.60
2019-01-11T14:34:40.839Z,90.57
2019-01-11T14:37:44.259Z,48.50
2019-01-11T14:40:47.712Z,28.67
2019-01-11T14:43:51.292Z,23.27
2019-01-11T14:46:54.804Z,118.03
2019-01-11T14:49:58.301Z,177.97
2019-01-11T14:53:01.764Z,145.80
2019-01-11T14:56:05.292Z,83.67
2019-01-11T14:59:08.712Z,262.17
2019-01-11T15:02:12.150Z,124.83
2019-01-11T15:05:16.744Z,175.77
2019-01-11T15:08:20.283Z,169.50
2019-01-11T15:11:23.694Z,150.20
2019-01-11T15:14:27.135Z,283.00
2019-01-11T15:17:30.588Z,215.70
2019-01-11T15:20:34.002Z,92.50
2019-01-11T15:23:37.466Z,153.07
2019-01-11T15:26:40.897Z,351.83
2019-01-11T15:29:44.342Z,429.63
2019-01-11T15:32:47.903Z,317.50
2019-01-11T15:35:51.355Z,223.20
2019-01-11T15:38:54.777Z,96.13
2019-01-11T15:41:58.252Z,62.13
2019-01-11T15:45:01.682Z,328.70
2019-01-11T15:48:05.141Z,249.77
2019-01-11T15:51:11.248Z,255.80
2019-01-11T15:54:14.707Z,337.37
2019-01-11T15:57:22.883Z,385.73
2019-01-11T16:00:27.275Z,111.63
2019-01-11T16:03:30.734Z,343.33
2019-01-11T16:06:34.362Z,336.90
2019-01-11T16:09:55.911Z,189.63
2019-01-11T16:12:59.519Z,318.50
2019-01-11T16:16:05.468Z,193.90
2019-01-11T16:19:08.927Z,156.13
2019-01-11T16:22:12.340Z,198.77
2019-01-11T16:25:15.868Z,352.20
2019-01-11T16:28:19.357Z,189.87
2019-01-11T16:31:22.812Z,153.00
2019-01-11T16:34:26.236Z,185.93
2019-01-11T16:37:29.690Z,33.60
2019-01-11T16:40:33.113Z,186.47
2019-01-11T16:43:36.821Z,127.13
2019-01-11T16:46:40.272Z,112.47
2019-01-11T16:49:43.693Z,68.60
2019-01-11T16:52:47.143Z,115.33
2019-01-11T16:55:50.601Z,81.23
2019-01-11T16:58:54.009Z,120.10
2019-01-11T17:01:57.478Z,47.13
2019-01-11T17:05:00.890Z,136.93
2019-01-11T17:08:04.486Z,97.47
2019-01-11T17:11:08.017Z,113.40
2019-01-11T17:14:11.425Z,121.93
2019-01-11T17:17:14.923Z,95.03
2019-01-11T17:20:18.412Z,54.03
2019-01-11T17:23:21.864Z,82.13
2019-01-11T17:26:25.285Z,51.73
2019-01-11T17:29:28.724Z,32.73
2019-01-11T17:32:32.209Z,40.20
2019-01-11T17:35:35.673Z,47.37
2019-01-11T17:38:39.118Z,26.40
2019-01-11T17:41:42.535Z,44.10
2019-01-11T17:44:45.968Z,48.90
2019-01-11T17:47:49.391Z,26.17
2019-01-11T17:50:52.824Z,23.60
2019-01-11T17:53:56.279Z,25.47
2019-01-11T17:56:59.732Z,30.17
2019-01-11T18:00:03.425Z,29.23
2019-01-11T18:03:06.864Z,24.77
2019-01-11T18:06:10.302Z,38.40
2019-01-11T18:09:13.736Z,74.50
2019-01-11T18:12:20.132Z,38.73
2019-01-11T18:15:22.489Z,29.67
2019-01-11T18:18:25.903Z,24.17
2019-01-11T18:21:29.375Z,37.60
2019-01-11T18:24:32.820Z,24.73
2019-01-11T18:27:36.237Z,21.80
2019-01-11T18:30:39.685Z,17.83
2019-01-11T18:33:43.096Z,21.20
2019-01-11T18:36:47.545Z,18.23
2019-01-11T18:39:57.602Z,16.87
2019-01-11T18:42:56.166Z,16.67
2019-01-11T18:45:59.596Z,18.70
2019-01-11T18:49:04.334Z,15.97
2019-01-11T18:52:07.933Z,11.80
2019-01-11T18:55:11.517Z,14.63
2019-01-11T18:58:14.925Z,13.17
2019-01-11T19:01:18.361Z,11.40
2019-01-11T19:04:21.768Z,9.83
2019-01-11T19:07:25.212Z,11.53
2019-01-11T19:10:28.663Z,10.10
2019-01-11T19:13:32.161Z,8.33
2019-01-11T19:16:35.578Z,7.73
2019-01-11T19:19:39.019Z,11.07
2019-01-11T19:22:42.461Z,7.37
2019-01-11T19:25:45.894Z,6.87
2019-01-11T19:28:49.337Z,7.80
2019-01-11T19:31:52.765Z,5.57
2019-01-11T19:34:56.193Z,6.03
2019-01-11T19:37:59.625Z,8.07
2019-01-11T19:41:03.068Z,4.70
2019-01-11T19:44:06.769Z,7.53
2019-01-11T19:47:10.187Z,7.63
2019-01-11T19:50:19.020Z,8.67
2019-01-11T19:53:27.574Z,6.43
2019-01-11T19:56:29.398Z,10.87
2019-01-11T19:59:32.828Z,5.07
2019-01-11T20:02:36.257Z,5.73
2019-01-11T20:05:39.856Z,11.40
2019-01-11T20:08:43.266Z,7.53
2019-01-11T20:11:46.714Z,7.27
2019-01-11T20:14:50.150Z,8.13
2019-01-11T20:17:53.696Z,7.60
2019-01-11T20:20:57.104Z,8.77
2019-01-11T20:24:00.562Z,12.43
2019-01-11T20:27:04.041Z,9.30
2019-01-11T20:30:16.005Z,10.57
2019-01-11T20:33:19.488Z,9.93
2019-01-11T20:36:22.925Z,10.23
2019-01-11T20:39:26.369Z,14.33
2019-01-11T20:42:29.771Z,8.53
2019-01-11T20:45:33.217Z,12.00
2019-01-11T20:48:36.741Z,11.97
2019-01-11T20:51:40.197Z,7.57
2019-01-11T20:54:43.641Z,12.67
2019-01-11T20:57:47.051Z,10.40
2019-01-11T21:00:50.532Z,9.90
2019-01-11T21:03:53.989Z,10.53
2019-01-11T21:07:00.138Z,14.37
2019-01-11T21:10:04.887Z,11.40
2019-01-11T21:13:08.322Z,13.73
2019-01-11T21:16:11.765Z,12.27
2019-01-11T21:19:15.192Z,12.60
2019-01-11T21:22:18.633Z,10.90
2019-01-11T21:25:22.123Z,11.17
2019-01-11T21:28:25.582Z,13.13
2019-01-11T21:31:28.996Z,11.90
2019-01-11T21:34:32.442Z,10.43
2019-01-11T21:37:35.941Z,14.80
2019-01-11T21:40:39.523Z,9.97
2019-01-11T21:43:42.947Z,15.53
2019-01-11T21:46:46.390Z,14.00
2019-01-11T21:49:49.805Z,11.47
2019-01-11T21:52:53.320Z,10.03
2019-01-11T21:55:56.751Z,15.40
2019-01-11T21:59:00.188Z,10.97
2019-01-11T22:02:03.701Z,14.13
2019-01-11T22:05:07.252Z,11.53
2019-01-11T22:08:10.708Z,17.27
2019-01-11T22:11:14.127Z,10.87
2019-01-11T22:14:17.584Z,18.87
2019-01-11T22:17:21.016Z,11.70
2019-01-11T22:20:24.448Z,14.77
2019-01-11T22:23:27.897Z,11.03
2019-01-11T22:26:31.349Z,8.67
2019-01-11T22:29:34.840Z,12.20
2019-01-11T22:32:38.291Z,12.10
2019-01-11T22:35:41.708Z,11.77
2019-01-11T22:38:45.157Z,16.03
2019-01-11T22:41:48.569Z,14.20
2019-01-11T22:44:52.003Z,12.57
2019-01-11T22:47:55.455Z,10.47
2019-01-11T22:51:00.576Z,18.00
2019-01-11T22:54:10.267Z,14.13
2019-01-11T22:57:09.287Z,13.00
2019-01-11T23:00:26.197Z,10.50
2019-01-11T23:03:32.681Z,12.00
2019-01-11T23:06:39.183Z,11.57
2019-01-11T23:09:43.213Z,14.57
2019-01-11T23:12:48.777Z,19.33
2019-01-11T23:15:52.358Z,9.73
2019-01-11T23:18:56.608Z,14.80
2019-01-11T23:22:00.057Z,12.80
2019-01-11T23:25:04.232Z,11.43
2019-01-11T23:28:07.680Z,17.67
2019-01-11T23:31:11.085Z,12.40
2019-01-11T23:34:14.525Z,11.93
2019-01-11T23:37:17.963Z,14.67
2019-01-11T23:40:21.376Z,13.27
2019-01-11T23:43:24.816Z,12.23
2019-01-11T23:46:28.236Z,23.60
2019-01-11T23:49:31.665Z,9.93
2019-01-11T23:52:35.081Z,15.87
2019-01-11T23:55:38.534Z,12.93
2019-01-11T23:58:41.940Z,14.37
